To NAV CANADA Home Page Login to a new session Search on AWWS site Feedback and Comments Disclaimer Vers la page française équivalente Tips FAQ What's new on the site To the Forecasts and Observations / NOTAM section To "File a Flight Plan" website Publications and other links Update of the User's profile FIC Telephone Numbers My Weather Data Folder Route Weather Data Regional Weather Data Local Weather Data To the Forecasts and Observations / NOTAM section
Request Generated 02/12/2016 at 13:50:31 UTC . Weather information available at that time is displayed.

METAR/TAF

ABBOTSFORD/BC    

METAR CYXX 121300Z 35005KT 340V050 10SM -RA SCT005 OVC017 08/07 A3005
RMK SF3SC5 -RA INTMT SLP178=
METAR CYXX 121200Z 08008KT 5SM -RA BKN005 OVC020 08/07 A3006 RMK
SF5SC3 /R11/ SLP180=
METAR CYXX 121100Z 01004KT 4SM -RA BKN005 OVC020 08/07 A3006 RMK
SF6NS2 SLP183=

TAF CYXX 121138Z 1212/1312 01005KT P6SM -RA SCT005 OVC020 TEMPO
1212/1218 2SM -SHRA BR OVC005
FM121800 VRB03KT P6SM -RA BKN012 OVC040 TEMPO 1218/1306 4SM -SHRA
BR
BECMG 1222/1224 18008KT
FM130600 19006KT P6SM SCT015 BKN060 TEMPO 1306/1312 6SM -SHRA BR
RMK NXT FCST BY 121800Z=
Your time UTC time
Weather data provided by Environment Canada and NAV CANADA